createdAt,value
2018-08-18T00:00:14.869Z,10.47
2018-08-18T00:02:43.351Z,12.80
2018-08-18T00:05:12.670Z,11.97
2018-08-18T00:07:41.236Z,12.77
2018-08-18T00:10:10.270Z,12.03
2018-08-18T00:12:38.766Z,12.23
2018-08-18T00:15:08.473Z,15.73
2018-08-18T00:17:37.161Z,13.07
2018-08-18T00:20:08.558Z,12.63
2018-08-18T00:22:36.949Z,12.57
2018-08-18T00:25:06.319Z,12.97
2018-08-18T00:27:34.808Z,11.47
2018-08-18T00:30:08.580Z,14.93
2018-08-18T00:32:37.425Z,12.13
2018-08-18T00:35:07.642Z,12.60
2018-08-18T00:37:36.353Z,12.30
2018-08-18T00:40:06.229Z,10.60
2018-08-18T00:42:34.649Z,12.67
2018-08-18T00:45:03.283Z,12.60
2018-08-18T00:47:31.782Z,14.73
2018-08-18T00:50:00.270Z,12.90
2018-08-18T00:52:28.820Z,12.80
2018-08-18T00:54:57.278Z,11.17
2018-08-18T00:57:27.898Z,9.93
2018-08-18T00:59:56.640Z,10.80
2018-08-18T01:02:25.482Z,10.23
2018-08-18T01:05:00.366Z,10.33
2018-08-18T01:07:29.768Z,10.23
2018-08-18T01:09:58.782Z,9.60
2018-08-18T01:12:27.723Z,9.77
2018-08-18T01:14:56.321Z,10.17
2018-08-18T01:17:25.051Z,10.00
2018-08-18T01:19:54.409Z,9.80
2018-08-18T01:22:22.809Z,11.57
2018-08-18T01:24:51.907Z,13.50
2018-08-18T01:27:20.549Z,15.20
2018-08-18T01:29:55.275Z,13.40
2018-08-18T01:32:23.830Z,14.07
2018-08-18T01:34:52.830Z,14.77
2018-08-18T01:37:21.506Z,15.00
2018-08-18T01:39:55.165Z,15.50
2018-08-18T01:42:23.997Z,15.13
2018-08-18T01:44:52.693Z,17.90
2018-08-18T01:47:21.156Z,16.17
2018-08-18T01:49:49.591Z,13.60
2018-08-18T01:52:22.164Z,14.60
2018-08-18T01:54:50.570Z,14.83
2018-08-18T01:57:19.579Z,14.07
2018-08-18T01:59:48.139Z,12.63
2018-08-18T02:02:20.260Z,12.80
2018-08-18T02:04:49.170Z,13.97
2018-08-18T02:07:22.718Z,12.70
2018-08-18T02:09:51.114Z,13.13
2018-08-18T02:12:19.523Z,13.23
2018-08-18T02:14:47.876Z,13.50
2018-08-18T02:17:22.741Z,11.63
2018-08-18T02:19:51.613Z,12.77
2018-08-18T02:22:20.028Z,11.73
2018-08-18T02:24:48.457Z,11.27
2018-08-18T02:27:16.836Z,11.00
2018-08-18T02:29:55.358Z,11.57
2018-08-18T02:32:30.568Z,12.43
2018-08-18T02:34:59.081Z,13.73
2018-08-18T02:37:28.269Z,12.70
2018-08-18T02:39:56.662Z,13.43
2018-08-18T02:42:24.983Z,14.23
2018-08-18T02:44:53.858Z,13.30
2018-08-18T02:47:22.802Z,13.20
2018-08-18T02:49:52.160Z,13.07
2018-08-18T02:52:22.535Z,11.40
2018-08-18T02:54:59.781Z,10.90
2018-08-18T02:57:30.379Z,13.13
2018-08-18T03:00:02.883Z,13.73
2018-08-18T03:02:31.357Z,11.90
2018-08-18T03:04:59.790Z,14.40
2018-08-18T03:07:37.894Z,11.90
2018-08-18T03:10:12.627Z,12.90
2018-08-18T03:12:43.969Z,11.47
2018-08-18T03:15:16.158Z,12.10
2018-08-18T03:17:44.645Z,13.30
2018-08-18T03:20:13.066Z,13.17
2018-08-18T03:22:41.523Z,13.83
2018-08-18T03:25:09.985Z,12.37
2018-08-18T03:27:38.449Z,14.30
2018-08-18T03:30:06.927Z,15.70
2018-08-18T03:32:35.277Z,14.47
2018-08-18T03:35:03.786Z,14.80
2018-08-18T03:37:32.298Z,15.13
2018-08-18T03:40:00.771Z,14.03
2018-08-18T03:42:34.546Z,16.20
2018-08-18T03:45:04.871Z,15.47
2018-08-18T03:47:33.191Z,14.87
2018-08-18T03:50:01.504Z,15.23
2018-08-18T03:52:29.922Z,14.57
2018-08-18T03:54:58.289Z,13.23
2018-08-18T03:57:36.748Z,15.37
2018-08-18T04:00:05.178Z,15.60
2018-08-18T04:02:33.697Z,18.37
2018-08-18T04:05:06.316Z,16.07
2018-08-18T04:07:38.959Z,15.20
2018-08-18T04:10:07.708Z,15.80
2018-08-18T04:12:36.237Z,15.60
2018-08-18T04:15:05.035Z,15.80
2018-08-18T04:17:33.592Z,14.27
2018-08-18T04:20:02.095Z,17.43
2018-08-18T04:22:30.673Z,16.30
2018-08-18T04:24:59.154Z,17.27
2018-08-18T04:27:42.388Z,15.97
2018-08-18T04:30:12.809Z,14.57
2018-08-18T04:32:54.038Z,15.97
2018-08-18T04:35:24.829Z,16.00
2018-08-18T04:37:54.246Z,18.50
2018-08-18T04:40:23.238Z,17.30
2018-08-18T04:42:51.663Z,17.07
2018-08-18T04:45:21.043Z,17.10
2018-08-18T04:47:49.482Z,17.87
2018-08-18T04:50:17.904Z,17.53
2018-08-18T04:52:46.335Z,16.93
2018-08-18T04:55:15.585Z,14.73
2018-08-18T04:57:44.601Z,17.07
2018-08-18T05:00:13.845Z,16.30
2018-08-18T05:02:59.415Z,16.67
2018-08-18T05:05:29.176Z,17.80
2018-08-18T05:07:58.431Z,15.90
2018-08-18T05:10:27.327Z,15.27
2018-08-18T05:12:55.689Z,17.07
2018-08-18T05:15:24.307Z,17.50
2018-08-18T05:17:52.638Z,19.80
2018-08-18T05:20:23.871Z,15.93
2018-08-18T05:22:52.293Z,16.70
2018-08-18T05:25:29.226Z,15.47
2018-08-18T05:27:58.305Z,19.00
2018-08-18T05:30:26.730Z,16.73
2018-08-18T05:32:55.274Z,17.33
2018-08-18T05:35:23.874Z,16.27
2018-08-18T05:37:52.440Z,17.17
2018-08-18T05:40:20.956Z,15.17
2018-08-18T05:42:49.458Z,17.43
2018-08-18T05:45:26.240Z,14.70
2018-08-18T05:47:54.933Z,14.17
2018-08-18T05:50:27.600Z,14.73
2018-08-18T05:53:01.519Z,15.47
2018-08-18T05:55:29.948Z,15.20
2018-08-18T05:57:58.405Z,14.00
2018-08-18T06:00:26.754Z,13.33
2018-08-18T06:03:00.146Z,14.40
2018-08-18T06:05:29.127Z,14.93
2018-08-18T06:07:57.913Z,16.37
2018-08-18T06:10:26.393Z,14.37
2018-08-18T06:12:54.874Z,16.13
2018-08-18T06:15:23.232Z,13.93
2018-08-18T06:17:51.609Z,18.07
2018-08-18T06:20:20.042Z,18.13
2018-08-18T06:22:48.469Z,14.67
2018-08-18T06:25:16.916Z,14.17
2018-08-18T06:27:46.165Z,14.77
2018-08-18T06:30:15.418Z,14.80
2018-08-18T06:32:43.812Z,13.03
2018-08-18T06:35:12.341Z,12.90
2018-08-18T06:37:42.963Z,13.63
2018-08-18T06:40:11.599Z,14.73
2018-08-18T06:42:42.126Z,18.00
2018-08-18T06:45:12.725Z,15.00
2018-08-18T06:47:41.519Z,13.60
2018-08-18T06:50:12.042Z,16.27
2018-08-18T06:52:40.634Z,12.67
2018-08-18T06:55:14.106Z,12.73
2018-08-18T06:57:45.285Z,13.83
2018-08-18T07:00:21.480Z,23.43
2018-08-18T07:02:49.942Z,16.03
2018-08-18T07:05:19.314Z,15.00
2018-08-18T07:07:48.361Z,12.53
2018-08-18T07:10:29.519Z,14.07
2018-08-18T07:13:01.645Z,15.60
2018-08-18T07:15:33.200Z,14.47
2018-08-18T07:18:01.746Z,14.80
2018-08-18T07:20:30.246Z,15.77
2018-08-18T07:22:58.689Z,13.90
2018-08-18T07:25:27.085Z,12.43
2018-08-18T07:28:00.737Z,11.87
2018-08-18T07:30:30.135Z,15.87
2018-08-18T07:32:58.974Z,13.23
2018-08-18T07:35:27.450Z,12.70
2018-08-18T07:37:55.879Z,11.80
2018-08-18T07:40:30.856Z,15.20
2018-08-18T07:43:06.358Z,15.13
2018-08-18T07:45:35.254Z,11.43
2018-08-18T07:48:03.895Z,10.87
2018-08-18T07:50:32.709Z,10.03
2018-08-18T07:53:01.385Z,11.27
2018-08-18T07:55:29.845Z,10.90
2018-08-18T07:58:00.455Z,10.27
2018-08-18T08:00:31.491Z,9.80
2018-08-18T08:03:00.491Z,12.67
2018-08-18T08:05:29.245Z,11.93
2018-08-18T08:07:57.791Z,10.17
2018-08-18T08:10:26.407Z,14.97
2018-08-18T08:12:54.918Z,10.43
2018-08-18T08:15:23.404Z,9.40
2018-08-18T08:17:51.819Z,9.87
2018-08-18T08:20:20.167Z,11.70
2018-08-18T08:22:52.842Z,9.27
2018-08-18T08:25:21.219Z,7.77
2018-08-18T08:27:50.778Z,10.57
2018-08-18T08:30:20.374Z,8.13
2018-08-18T08:32:48.953Z,7.53
2018-08-18T08:35:17.494Z,7.03
2018-08-18T08:37:46.897Z,9.57
2018-08-18T08:40:17.512Z,9.47
2018-08-18T08:42:45.943Z,9.23
2018-08-18T08:45:16.140Z,11.30
2018-08-18T08:47:45.246Z,8.20
2018-08-18T08:50:15.265Z,7.77
2018-08-18T08:52:49.617Z,9.93
2018-08-18T08:55:21.265Z,7.33
2018-08-18T08:57:49.550Z,6.73
2018-08-18T09:00:17.891Z,7.37
2018-08-18T09:02:46.203Z,7.83
2018-08-18T09:05:14.660Z,8.47
2018-08-18T09:07:43.354Z,6.97
2018-08-18T09:10:13.451Z,8.93
2018-08-18T09:12:41.802Z,7.83
2018-08-18T09:15:11.576Z,11.30
2018-08-18T09:17:39.957Z,8.97
2018-08-18T09:20:10.305Z,10.53
2018-08-18T09:23:09.569Z,13.17
2018-08-18T09:25:37.770Z,7.47
2018-08-18T09:28:06.006Z,7.87
2018-08-18T09:30:34.224Z,9.10
2018-08-18T09:33:05.747Z,9.00
2018-08-18T09:35:50.804Z,6.60
2018-08-18T09:38:19.024Z,9.60
2018-08-18T09:40:47.246Z,9.53
2018-08-18T09:43:20.600Z,9.93
2018-08-18T09:45:48.834Z,13.27
2018-08-18T09:48:17.073Z,7.20
2018-08-18T09:50:45.450Z,10.07
2018-08-18T09:53:13.677Z,8.57
2018-08-18T09:55:41.868Z,10.57
2018-08-18T09:58:10.464Z,10.67
2018-08-18T10:00:40.500Z,12.27
2018-08-18T10:03:09.188Z,7.57
2018-08-18T10:05:37.669Z,8.00
2018-08-18T10:08:06.414Z,8.97
2018-08-18T10:10:34.728Z,10.53
2018-08-18T10:13:03.113Z,11.07
2018-08-18T10:15:31.329Z,11.80
2018-08-18T10:17:59.534Z,11.17
2018-08-18T10:20:28.157Z,9.73
2018-08-18T10:22:56.319Z,8.13
2018-08-18T10:25:24.545Z,10.07
2018-08-18T10:27:52.831Z,9.10
2018-08-18T10:30:21.082Z,8.73
2018-08-18T10:32:53.520Z,9.73
2018-08-18T10:35:36.281Z,9.07
2018-08-18T10:38:05.752Z,9.80
2018-08-18T10:40:33.985Z,8.00
2018-08-18T10:43:02.205Z,9.40
2018-08-18T10:45:30.388Z,7.37
2018-08-18T10:47:58.586Z,8.83
2018-08-18T10:50:40.532Z,9.97
2018-08-18T10:53:08.746Z,8.97
2018-08-18T10:55:36.929Z,7.70
2018-08-18T10:58:08.333Z,6.80
2018-08-18T11:00:37.264Z,7.10
2018-08-18T11:03:06.847Z,6.50
2018-08-18T11:05:35.150Z,7.20
2018-08-18T11:08:07.728Z,10.37
2018-08-18T11:10:39.402Z,7.23
2018-08-18T11:13:07.673Z,7.90
2018-08-18T11:15:35.963Z,6.50
2018-08-18T11:18:04.332Z,5.63
2018-08-18T11:20:34.069Z,6.60
2018-08-18T11:23:06.428Z,8.43
2018-08-18T11:25:36.845Z,6.83
2018-08-18T11:28:05.402Z,6.43
2018-08-18T11:30:33.731Z,5.77
2018-08-18T11:33:02.682Z,4.33
2018-08-18T11:35:31.612Z,6.07
2018-08-18T11:38:07.343Z,7.63
2018-08-18T11:40:35.810Z,5.10
2018-08-18T11:43:05.630Z,6.17
2018-08-18T11:45:35.216Z,6.10
2018-08-18T11:48:06.763Z,4.67
2018-08-18T11:50:35.168Z,6.67
2018-08-18T11:53:03.955Z,6.37
2018-08-18T11:55:32.422Z,5.77
2018-08-18T11:58:03.978Z,4.53
2018-08-18T12:00:34.118Z,5.00
2018-08-18T12:03:07.922Z,6.87
2018-08-18T12:05:41.671Z,7.30
2018-08-18T12:08:10.114Z,5.43
2018-08-18T12:10:38.562Z,6.90
2018-08-18T12:13:06.889Z,5.37
2018-08-18T12:15:47.141Z,4.67
2018-08-18T12:18:15.518Z,4.93
2018-08-18T12:20:43.984Z,5.17
2018-08-18T12:23:12.223Z,5.57
2018-08-18T12:25:40.484Z,6.23
2018-08-18T12:28:08.685Z,8.10
2018-08-18T12:30:36.985Z,6.70
2018-08-18T12:33:10.584Z,4.50
2018-08-18T12:35:39.883Z,7.37
2018-08-18T12:38:08.308Z,5.60
2018-08-18T12:40:36.689Z,6.47
2018-08-18T12:43:05.174Z,10.83
2018-08-18T12:45:44.346Z,5.73
2018-08-18T12:48:12.758Z,6.60
2018-08-18T12:50:41.106Z,4.17
2018-08-18T12:53:09.463Z,5.93
2018-08-18T12:55:37.983Z,5.93
2018-08-18T12:58:06.860Z,5.37
2018-08-18T13:00:35.205Z,4.70
2018-08-18T13:03:03.600Z,3.53
2018-08-18T13:05:32.042Z,5.97
2018-08-18T13:08:00.481Z,5.97
2018-08-18T13:10:29.727Z,5.47
2018-08-18T13:12:58.198Z,6.10
2018-08-18T13:15:26.606Z,5.03
2018-08-18T13:17:55.069Z,5.30
2018-08-18T13:20:24.898Z,6.17
2018-08-18T13:22:53.258Z,6.17
2018-08-18T13:25:21.656Z,4.77
2018-08-18T13:27:56.356Z,3.83
2018-08-18T13:30:25.982Z,6.13
2018-08-18T13:32:57.898Z,4.97
2018-08-18T13:35:26.261Z,8.33
2018-08-18T13:37:55.008Z,5.17
2018-08-18T13:40:24.352Z,4.30
2018-08-18T13:42:52.701Z,4.07
2018-08-18T13:45:28.993Z,3.47
2018-08-18T13:48:01.616Z,4.60
2018-08-18T13:50:33.005Z,3.97
2018-08-18T13:53:02.007Z,4.77
2018-08-18T13:55:31.354Z,4.87
2018-08-18T13:57:59.899Z,3.53
2018-08-18T14:00:28.349Z,3.83
2018-08-18T14:02:56.744Z,3.50
2018-08-18T14:05:28.769Z,4.33
2018-08-18T14:08:02.582Z,4.23
2018-08-18T14:10:31.007Z,4.00
2018-08-18T14:13:00.981Z,4.37
2018-08-18T14:15:29.334Z,2.97
2018-08-18T14:18:03.209Z,3.10
2018-08-18T14:20:32.277Z,3.53
2018-08-18T14:23:06.495Z,3.93
2018-08-18T14:25:35.294Z,4.43
2018-08-18T14:28:05.162Z,4.67
2018-08-18T14:30:34.659Z,4.67
2018-08-18T14:33:03.306Z,4.10
2018-08-18T14:35:31.742Z,6.07
2018-08-18T14:38:00.054Z,3.77
2018-08-18T14:40:28.391Z,3.70
2018-08-18T14:42:56.741Z,3.17
2018-08-18T14:45:26.633Z,6.53
2018-08-18T14:47:55.597Z,4.90
2018-08-18T14:50:26.157Z,3.60
2018-08-18T14:52:54.591Z,4.90
2018-08-18T14:55:23.011Z,4.90
2018-08-18T14:57:55.674Z,4.77
2018-08-18T15:00:24.146Z,5.03
2018-08-18T15:02:52.596Z,4.27
2018-08-18T15:05:21.014Z,4.07
2018-08-18T15:07:51.572Z,4.70
2018-08-18T15:10:35.865Z,4.13
2018-08-18T15:13:04.769Z,3.67
2018-08-18T15:15:33.874Z,5.30
2018-08-18T15:18:03.391Z,3.97
2018-08-18T15:20:33.477Z,4.10
2018-08-18T15:23:02.496Z,3.60
2018-08-18T15:25:31.990Z,4.13
2018-08-18T15:28:02.329Z,3.70
2018-08-18T15:30:30.521Z,4.77
2018-08-18T15:32:58.773Z,4.53
2018-08-18T15:35:27.157Z,5.03
2018-08-18T15:37:56.042Z,3.37
2018-08-18T15:40:26.125Z,5.23
2018-08-18T15:42:54.849Z,2.97
2018-08-18T15:45:23.125Z,4.57
2018-08-18T15:47:51.387Z,3.80
2018-08-18T15:50:19.565Z,4.07
2018-08-18T15:52:48.881Z,3.90
2018-08-18T15:55:17.661Z,3.60
2018-08-18T15:57:45.907Z,4.80
2018-08-18T16:00:27.820Z,5.87
2018-08-18T16:02:57.121Z,3.17
2018-08-18T16:05:25.637Z,4.87
2018-08-18T16:07:54.121Z,4.33
2018-08-18T16:10:22.385Z,3.47
2018-08-18T16:12:50.852Z,4.93
2018-08-18T16:15:20.348Z,5.13
2018-08-18T16:17:48.572Z,3.80
2018-08-18T16:20:23.972Z,4.93
2018-08-18T16:22:54.093Z,6.93
2018-08-18T16:25:34.240Z,6.17
2018-08-18T16:28:02.925Z,4.77
2018-08-18T16:30:31.112Z,8.73
2018-08-18T16:33:08.720Z,4.07
2018-08-18T16:35:38.100Z,5.13
2018-08-18T16:38:06.284Z,10.83
2018-08-18T16:40:34.961Z,6.20
2018-08-18T16:43:04.269Z,5.83
2018-08-18T16:45:32.445Z,5.33
2018-08-18T16:48:02.267Z,3.43
2018-08-18T16:50:30.708Z,4.60
2018-08-18T16:53:01.231Z,4.80
2018-08-18T16:55:30.227Z,4.83
2018-08-18T16:57:58.453Z,3.60
2018-08-18T17:00:26.647Z,4.60
2018-08-18T17:02:54.880Z,4.43
2018-08-18T17:05:23.058Z,3.50
2018-08-18T17:07:51.260Z,4.63
2018-08-18T17:10:19.471Z,4.20
2018-08-18T17:12:47.677Z,4.90
2018-08-18T17:15:15.935Z,3.70
2018-08-18T17:17:44.149Z,2.97
2018-08-18T17:20:12.433Z,3.30
2018-08-18T17:22:40.680Z,3.40
2018-08-18T17:25:09.589Z,3.67
2018-08-18T17:27:37.764Z,3.43
2018-08-18T17:30:06.169Z,3.67
2018-08-18T17:32:34.317Z,5.53
2018-08-18T17:35:02.566Z,6.13
2018-08-18T17:37:30.762Z,3.07
2018-08-18T17:39:59.004Z,3.13
2018-08-18T17:42:27.188Z,2.73
2018-08-18T17:44:55.377Z,4.93
2018-08-18T17:47:23.574Z,3.97
2018-08-18T17:49:55.608Z,3.23
2018-08-18T17:52:23.917Z,4.50
2018-08-18T17:55:06.917Z,4.47
2018-08-18T17:57:35.888Z,3.83
2018-08-18T18:00:11.362Z,3.73
2018-08-18T18:02:44.974Z,4.27
2018-08-18T18:05:13.239Z,3.53
2018-08-18T18:07:41.434Z,4.33
2018-08-18T18:10:09.609Z,4.33
2018-08-18T18:12:37.797Z,3.37
2018-08-18T18:15:16.236Z,3.70
2018-08-18T18:17:44.446Z,4.73
2018-08-18T18:20:12.653Z,4.63
2018-08-18T18:22:45.097Z,3.47
2018-08-18T18:25:13.369Z,4.43
2018-08-18T18:27:41.551Z,7.53
2018-08-18T18:30:09.927Z,5.03
2018-08-18T18:32:38.102Z,5.20
2018-08-18T18:35:06.281Z,8.47
2018-08-18T18:37:34.438Z,24.23
2018-08-18T18:40:06.063Z,4.27
2018-08-18T18:42:34.257Z,7.63
2018-08-18T18:45:02.458Z,4.63
2018-08-18T18:47:30.701Z,3.63
2018-08-18T18:49:58.918Z,6.77
2018-08-18T18:52:27.195Z,3.13
2018-08-18T18:54:57.273Z,6.70
2018-08-18T18:57:25.549Z,3.73
2018-08-18T18:59:56.690Z,4.53
2018-08-18T19:02:28.223Z,3.60
2018-08-18T19:04:56.429Z,2.57
2018-08-18T19:07:24.669Z,2.33
2018-08-18T19:09:57.460Z,5.77
2018-08-18T19:12:25.689Z,4.67
2018-08-18T19:14:53.839Z,3.53
2018-08-18T19:17:22.016Z,5.67
2018-08-18T19:19:55.578Z,4.10
2018-08-18T19:22:23.751Z,6.10
2018-08-18T19:24:51.950Z,4.73
2018-08-18T19:27:20.135Z,5.20
2018-08-18T19:29:48.375Z,5.77
2018-08-18T19:32:16.709Z,8.43
2018-08-18T19:34:44.951Z,6.17
2018-08-18T19:37:13.203Z,5.93
2018-08-18T19:39:41.422Z,4.10
2018-08-18T19:42:16.749Z,3.70
2018-08-18T19:44:47.217Z,7.37
2018-08-18T19:47:21.916Z,5.93
2018-08-18T19:49:50.070Z,5.23
2018-08-18T19:52:21.950Z,6.93
2018-08-18T19:54:51.025Z,5.93
2018-08-18T19:57:25.373Z,6.70
2018-08-18T19:59:54.844Z,11.00
2018-08-18T20:02:23.057Z,6.07
2018-08-18T20:04:51.470Z,8.83
2018-08-18T20:07:20.118Z,4.57
2018-08-18T20:09:48.445Z,8.10
2018-08-18T20:12:16.636Z,6.77
2018-08-18T20:14:44.861Z,7.03
2018-08-18T20:17:13.277Z,4.97
2018-08-18T20:19:41.484Z,6.00
2018-08-18T20:22:14.586Z,4.83
2018-08-18T20:24:42.822Z,9.70
2018-08-18T20:27:11.017Z,6.43
2018-08-18T20:29:39.196Z,7.63
2018-08-18T20:32:07.366Z,6.40
2018-08-18T20:34:35.600Z,5.70
2018-08-18T20:37:03.762Z,7.27
2018-08-18T20:39:31.917Z,7.23
2018-08-18T20:42:00.080Z,6.67
2018-08-18T20:44:29.320Z,7.37
2018-08-18T20:46:57.900Z,13.67
2018-08-18T20:49:26.122Z,13.27
2018-08-18T20:51:54.363Z,11.07
2018-08-18T20:54:22.589Z,11.53
2018-08-18T20:56:50.807Z,7.87
2018-08-18T20:59:18.985Z,8.20
2018-08-18T21:01:47.183Z,8.03
2018-08-18T21:04:15.373Z,6.17
2018-08-18T21:06:43.600Z,8.00
2018-08-18T21:09:23.559Z,5.77
2018-08-18T21:11:52.042Z,7.07
2018-08-18T21:14:20.221Z,6.77
2018-08-18T21:16:48.434Z,6.23
2018-08-18T21:19:23.972Z,6.03
2018-08-18T21:21:53.331Z,6.13
2018-08-18T21:24:21.457Z,6.20
2018-08-18T21:26:50.077Z,7.73
2018-08-18T21:29:18.298Z,9.60
2018-08-18T21:31:49.396Z,6.20
2018-08-18T21:34:17.592Z,8.10
2018-08-18T21:36:45.809Z,7.60
2018-08-18T21:39:14.022Z,8.47
2018-08-18T21:41:43.711Z,8.83
2018-08-18T21:44:13.254Z,6.30
2018-08-18T21:46:41.915Z,6.70
2018-08-18T21:49:10.592Z,9.30
2018-08-18T21:51:38.760Z,8.90
2018-08-18T21:54:07.179Z,7.37
2018-08-18T21:56:39.836Z,9.30
2018-08-18T21:59:10.028Z,8.20
2018-08-18T22:01:38.252Z,8.80
2018-08-18T22:04:06.765Z,8.67
2018-08-18T22:06:35.061Z,23.90
2018-08-18T22:09:21.907Z,23.20
2018-08-18T22:11:50.122Z,10.50
2018-08-18T22:14:18.741Z,9.80
2018-08-18T22:16:52.285Z,17.67
2018-08-18T22:19:21.181Z,9.20
2018-08-18T22:21:49.392Z,18.87
2018-08-18T22:24:17.626Z,20.57
2018-08-18T22:26:45.825Z,19.33
2018-08-18T22:29:14.227Z,15.10
2018-08-18T22:31:42.481Z,9.57
2018-08-18T22:34:10.740Z,8.03
2018-08-18T22:36:38.950Z,8.63
2018-08-18T22:39:08.440Z,7.83
2018-08-18T22:41:36.716Z,8.03
2018-08-18T22:44:04.917Z,10.97
2018-08-18T22:46:33.143Z,11.27
2018-08-18T22:49:01.376Z,14.10
2018-08-18T22:51:29.615Z,8.87
2018-08-18T22:53:57.962Z,10.17
2018-08-18T22:56:31.537Z,10.80
2018-08-18T22:59:03.842Z,10.83
2018-08-18T23:01:32.698Z,9.17
2018-08-18T23:04:01.509Z,10.03
2018-08-18T23:06:32.039Z,10.33
2018-08-18T23:09:00.241Z,10.37
2018-08-18T23:11:28.500Z,6.63
2018-08-18T23:13:56.713Z,13.03
2018-08-18T23:16:24.967Z,14.00
2018-08-18T23:18:53.229Z,20.50
2018-08-18T23:21:26.594Z,12.93
2018-08-18T23:23:54.807Z,8.50
2018-08-18T23:26:22.969Z,8.40
2018-08-18T23:28:51.167Z,7.50
2018-08-18T23:31:19.409Z,13.70
2018-08-18T23:33:47.613Z,9.93
2018-08-18T23:36:15.870Z,8.77
2018-08-18T23:38:49.206Z,8.33
2018-08-18T23:41:17.532Z,8.83
2018-08-18T23:43:45.749Z,7.90
2018-08-18T23:46:13.977Z,22.33
2018-08-18T23:48:42.166Z,9.77
2018-08-18T23:51:10.365Z,14.73
2018-08-18T23:53:38.617Z,12.30
2018-08-18T23:56:06.808Z,10.87
2018-08-18T23:58:35.094Z,13.23
